createdAt,value
2022-10-18T00:02:16.700Z,100095.28
2022-10-18T00:06:18.030Z,100093.59
2022-10-18T00:10:19.496Z,100090.13
2022-10-18T00:14:20.772Z,100097.16
2022-10-18T00:18:22.548Z,100093.63
2022-10-18T00:22:23.861Z,100094.53
2022-10-18T00:26:26.445Z,100087.53
2022-10-18T00:30:27.731Z,100084.97
2022-10-18T00:34:29.287Z,100072.72
2022-10-18T00:38:30.601Z,100070.09
2022-10-18T00:42:36.194Z,100117.41
2022-10-18T00:46:38.752Z,100132.22
2022-10-18T00:50:40.852Z,100124.13
2022-10-18T00:54:43.244Z,100131.03
2022-10-18T00:58:47.585Z,100137.88
2022-10-18T01:02:48.860Z,100141.28
2022-10-18T01:06:57.999Z,100114.13
2022-10-18T01:11:18.009Z,100115.81
2022-10-18T01:15:19.248Z,100093.97
2022-10-18T01:19:35.225Z,100090.50
2022-10-18T01:23:42.640Z,100092.25
2022-10-18T01:27:44.297Z,100086.16
2022-10-18T01:31:47.824Z,100083.53
2022-10-18T01:35:52.844Z,100079.19
2022-10-18T01:39:56.419Z,100073.09
2022-10-18T01:43:59.406Z,100082.75
2022-10-18T01:48:01.889Z,100077.63
2022-10-18T01:52:03.256Z,100082.13
2022-10-18T01:56:11.409Z,100078.72
2022-10-18T02:00:15.164Z,100074.56
2022-10-18T02:04:27.396Z,100074.69
2022-10-18T02:08:31.832Z,100073.88
2022-10-18T02:12:33.908Z,100065.16
2022-10-18T02:16:41.469Z,100063.47
2022-10-18T02:20:42.747Z,100066.97
2022-10-18T02:24:46.425Z,100075.75
2022-10-18T02:28:47.916Z,100077.56
2022-10-18T02:32:49.519Z,100069.72
2022-10-18T02:36:52.690Z,100064.50
2022-10-18T02:40:53.961Z,100056.69
2022-10-18T02:44:55.230Z,100062.91
2022-10-18T02:48:56.628Z,100065.63
2022-10-18T02:52:57.925Z,100069.28
2022-10-18T02:56:59.228Z,100078.09
2022-10-18T03:01:00.552Z,100084.25
2022-10-18T03:05:01.921Z,100084.31
2022-10-18T03:09:04.196Z,100087.81
2022-10-18T03:13:05.516Z,100098.38
2022-10-18T03:17:07.088Z,100099.28
2022-10-18T03:21:08.580Z,100099.25
2022-10-18T03:25:09.858Z,100107.03
2022-10-18T03:29:11.549Z,100114.81
2022-10-18T03:33:13.034Z,100119.13
2022-10-18T03:37:14.328Z,100121.69
2022-10-18T03:41:16.651Z,100126.00
2022-10-18T03:45:17.920Z,100132.06
2022-10-18T03:49:19.194Z,100128.50
2022-10-18T03:53:20.493Z,100132.78
2022-10-18T03:57:21.801Z,100136.25
2022-10-18T04:01:23.110Z,100140.56
2022-10-18T04:05:27.616Z,100144.03
2022-10-18T04:09:28.869Z,100148.38
2022-10-18T04:13:30.213Z,100151.88
2022-10-18T04:17:31.689Z,100151.88
2022-10-18T04:21:33.296Z,100154.50
2022-10-18T04:25:34.610Z,100143.19
2022-10-18T04:29:35.921Z,100114.38
2022-10-18T04:33:37.802Z,100108.28
2022-10-18T04:37:39.289Z,100094.31
2022-10-18T04:41:40.535Z,100107.41
2022-10-18T04:45:42.279Z,100103.91
2022-10-18T04:49:43.700Z,100106.50
2022-10-18T04:53:45.113Z,100113.53
2022-10-18T04:57:46.394Z,100117.97
2022-10-18T05:01:47.713Z,100130.25
2022-10-18T05:06:04.444Z,100132.94
2022-10-18T05:10:05.873Z,100138.22
2022-10-18T05:14:09.967Z,100146.06
2022-10-18T05:18:11.636Z,100153.03
2022-10-18T05:22:12.928Z,100167.91
2022-10-18T05:26:14.257Z,100179.25
2022-10-18T05:30:15.689Z,100176.59
2022-10-18T05:34:18.607Z,100175.69
2022-10-18T05:38:22.550Z,100187.88
2022-10-18T05:42:24.216Z,100191.34
2022-10-18T05:46:25.689Z,100190.44
2022-10-18T05:50:26.991Z,100189.53
2022-10-18T05:54:28.261Z,100179.88
2022-10-18T05:58:29.631Z,100184.25
2022-10-18T06:02:31.079Z,100191.22
2022-10-18T06:06:33.072Z,100178.09
2022-10-18T06:10:34.378Z,100192.06
2022-10-18T06:14:38.921Z,100195.56
2022-10-18T06:18:40.457Z,100191.22
2022-10-18T06:22:42.163Z,100201.72
2022-10-18T06:26:43.403Z,100198.25
2022-10-18T06:30:45.456Z,100199.16
2022-10-18T06:34:46.797Z,100201.81
2022-10-18T06:38:48.244Z,100215.78
2022-10-18T06:42:59.941Z,100220.13
2022-10-18T06:47:02.049Z,100227.03
2022-10-18T06:51:04.678Z,100226.09
2022-10-18T06:55:09.133Z,100227.75
2022-10-18T06:59:10.597Z,100241.66
2022-10-18T07:03:12.298Z,100239.81
2022-10-18T07:07:13.536Z,100246.69
2022-10-18T07:11:24.346Z,100247.50
2022-10-18T07:15:25.661Z,100246.59
2022-10-18T07:19:27.136Z,100260.63
2022-10-18T07:23:28.468Z,100256.25
2022-10-18T07:27:30.175Z,100257.97
2022-10-18T07:31:31.828Z,100257.03
2022-10-18T07:35:33.489Z,100262.22
2022-10-18T07:39:34.785Z,100265.69
2022-10-18T07:43:36.117Z,100276.16
2022-10-18T07:47:37.628Z,100291.84
2022-10-18T07:51:39.264Z,100290.06
2022-10-18T07:55:40.568Z,100287.44
2022-10-18T07:59:41.934Z,100290.00
2022-10-18T08:03:43.597Z,100289.03
2022-10-18T08:07:46.553Z,100295.09
2022-10-18T08:11:47.847Z,100304.63
2022-10-18T08:15:49.407Z,100317.66
2022-10-18T08:20:04.660Z,100316.72
2022-10-18T08:24:11.971Z,100321.75
2022-10-18T08:28:13.832Z,100319.00
2022-10-18T08:32:15.120Z,100316.28
2022-10-18T08:36:17.004Z,100317.03
2022-10-18T08:40:18.755Z,100319.47
2022-10-18T08:44:23.109Z,100322.75
2022-10-18T08:48:44.641Z,100324.31
2022-10-18T08:52:48.970Z,100333.03
2022-10-18T08:56:56.908Z,100336.53
2022-10-18T09:00:58.125Z,100336.66
2022-10-18T09:05:08.449Z,100344.56
2022-10-18T09:09:15.766Z,100345.56
2022-10-18T09:13:36.834Z,100349.19
2022-10-18T09:17:44.268Z,100340.31
2022-10-18T09:21:51.357Z,100346.44
2022-10-18T09:26:01.844Z,100341.16
2022-10-18T09:30:13.390Z,100337.59
2022-10-18T09:34:25.257Z,100340.13
2022-10-18T09:38:30.822Z,100342.63
2022-10-18T09:42:39.056Z,100347.81
2022-10-18T09:46:48.060Z,100344.22
2022-10-18T09:50:56.839Z,100344.91
2022-10-18T09:55:01.158Z,100342.91
2022-10-18T09:59:02.437Z,100346.97
2022-10-18T10:03:07.428Z,100344.94
2022-10-18T10:07:11.582Z,100354.22
2022-10-18T10:11:30.954Z,100356.63
2022-10-18T10:15:37.026Z,100361.69
2022-10-18T10:20:02.036Z,100363.38
2022-10-18T10:24:04.576Z,100363.38
2022-10-18T10:28:26.214Z,100363.09
2022-10-18T10:32:29.351Z,100353.13
2022-10-18T10:36:31.727Z,100361.59
2022-10-18T10:40:34.780Z,100351.66
2022-10-18T10:44:36.536Z,100360.41
2022-10-18T10:48:45.592Z,100366.66
2022-10-18T10:52:48.537Z,100371.91
2022-10-18T10:57:12.323Z,100376.44
2022-10-18T11:01:17.860Z,100366.97
2022-10-18T11:05:22.477Z,100363.66
2022-10-18T11:09:46.060Z,100366.31
2022-10-18T11:14:20.585Z,100372.28
2022-10-18T11:18:31.297Z,100375.53
2022-10-18T11:22:40.975Z,100369.13
2022-10-18T11:26:53.832Z,100371.59
2022-10-18T11:31:03.953Z,100373.19
2022-10-18T11:35:05.265Z,100362.50
2022-10-18T11:39:15.932Z,100357.06
2022-10-18T11:43:34.428Z,100367.63
2022-10-18T11:48:04.656Z,100357.06
2022-10-18T11:52:29.384Z,100345.63
2022-10-18T11:56:36.608Z,100340.22
2022-10-18T12:00:41.081Z,100339.09
2022-10-18T12:04:58.402Z,100340.91
2022-10-18T12:09:27.559Z,100339.19
2022-10-18T12:13:38.153Z,100340.88
2022-10-18T12:17:50.115Z,100332.06
2022-10-18T12:21:51.800Z,100327.69
2022-10-18T12:25:55.037Z,100319.75
2022-10-18T12:30:03.592Z,100320.47
2022-10-18T12:34:23.405Z,100321.25
2022-10-18T12:38:27.940Z,100318.66
2022-10-18T12:42:30.634Z,100318.59
2022-10-18T12:46:49.387Z,100325.66
2022-10-18T12:50:57.400Z,100317.84
2022-10-18T12:55:03.600Z,100319.78
2022-10-18T12:59:17.119Z,100318.94
2022-10-18T13:03:18.404Z,100312.78
2022-10-18T13:07:22.409Z,100308.28
2022-10-18T13:11:31.195Z,100312.66
2022-10-18T13:15:35.903Z,100315.38
2022-10-18T13:19:49.047Z,100305.81
2022-10-18T13:24:14.973Z,100309.34
2022-10-18T13:28:30.815Z,100303.28
2022-10-18T13:32:53.780Z,100306.78
2022-10-18T13:36:58.092Z,100312.06
2022-10-18T13:41:00.369Z,100315.81
2022-10-18T13:45:20.405Z,100309.75
2022-10-18T13:49:29.288Z,100310.66
2022-10-18T13:53:43.373Z,100315.91
2022-10-18T13:57:50.244Z,100316.78
2022-10-18T14:01:54.872Z,100323.00
2022-10-18T14:06:15.393Z,100320.38
2022-10-18T14:10:29.749Z,100317.78
2022-10-18T14:14:48.104Z,100325.66
2022-10-18T14:18:51.356Z,100321.25
2022-10-18T14:22:56.862Z,100321.41
2022-10-18T14:27:18.466Z,100320.59
2022-10-18T14:31:20.016Z,100319.78
2022-10-18T14:35:33.898Z,100323.41
2022-10-18T14:39:38.289Z,100317.34
2022-10-18T14:43:39.632Z,100316.56
2022-10-18T14:47:40.887Z,100314.84
2022-10-18T14:51:43.364Z,100313.97
2022-10-18T14:55:52.848Z,100312.34
2022-10-18T14:59:58.046Z,100314.19
2022-10-18T15:04:01.038Z,100312.56
2022-10-18T15:08:02.777Z,100305.63
2022-10-18T15:12:05.866Z,100314.47
2022-10-18T15:16:11.705Z,100316.25
2022-10-18T15:20:19.952Z,100316.34
2022-10-18T15:24:28.461Z,100315.63
2022-10-18T15:28:31.723Z,100318.38
2022-10-18T15:32:33.310Z,100311.41
2022-10-18T15:36:35.898Z,100311.50
2022-10-18T15:40:37.677Z,100307.19
2022-10-18T15:44:50.838Z,100309.09
2022-10-18T15:48:52.150Z,100310.16
2022-10-18T15:52:53.463Z,100304.06
2022-10-18T15:56:55.043Z,100307.72
2022-10-18T16:00:58.409Z,100309.53
2022-10-18T16:05:00.226Z,100305.28
2022-10-18T16:09:01.637Z,100305.34
2022-10-18T16:13:02.872Z,100307.25
2022-10-18T16:17:05.502Z,100296.94
2022-10-18T16:21:06.786Z,100295.44
2022-10-18T16:25:08.539Z,100294.00
2022-10-18T16:29:13.107Z,100289.06
2022-10-18T16:33:17.915Z,100292.84
2022-10-18T16:37:22.625Z,100283.47
2022-10-18T16:41:24.512Z,100290.72
2022-10-18T16:45:25.780Z,100282.16
2022-10-18T16:49:27.199Z,100288.56
2022-10-18T16:53:28.640Z,100294.06
2022-10-18T16:57:30.226Z,100297.78
2022-10-18T17:01:31.554Z,100298.94
2022-10-18T17:05:33.313Z,100309.56
2022-10-18T17:09:36.738Z,100310.59
2022-10-18T17:13:38.169Z,100314.22
2022-10-18T17:17:39.502Z,100320.41
2022-10-18T17:21:41.344Z,100317.88
2022-10-18T17:25:57.808Z,100332.81
2022-10-18T17:30:09.016Z,100337.19
2022-10-18T17:34:10.333Z,100338.06
2022-10-18T17:38:11.643Z,100338.97
2022-10-18T17:42:12.907Z,100338.13
2022-10-18T17:46:14.473Z,100344.22
2022-10-18T17:50:16.280Z,100338.09
2022-10-18T17:54:17.885Z,100343.31
2022-10-18T17:58:19.219Z,100347.66
2022-10-18T18:02:20.917Z,100350.34
2022-10-18T18:06:23.421Z,100348.66
2022-10-18T18:10:24.745Z,100352.16
2022-10-18T18:14:26.265Z,100356.50
2022-10-18T18:18:27.539Z,100348.66
2022-10-18T18:22:28.807Z,100356.53
2022-10-18T18:26:34.043Z,100350.41
2022-10-18T18:30:38.781Z,100357.41
2022-10-18T18:34:41.569Z,100357.41
2022-10-18T18:38:43.229Z,100350.44
2022-10-18T18:42:46.046Z,100344.31
2022-10-18T18:46:54.574Z,100353.06
2022-10-18T18:50:56.747Z,100346.09
2022-10-18T18:54:58.121Z,100346.09
2022-10-18T18:59:00.297Z,100347.88
2022-10-18T19:03:01.637Z,100345.25
2022-10-18T19:07:04.413Z,100344.44
2022-10-18T19:11:08.956Z,100338.34
2022-10-18T19:15:11.961Z,100341.00
2022-10-18T19:19:14.504Z,100331.47
2022-10-18T19:23:15.936Z,100332.34
2022-10-18T19:27:17.371Z,100324.53
2022-10-18T19:31:18.698Z,100329.00
2022-10-18T19:35:20.491Z,100329.03
2022-10-18T19:39:26.491Z,100331.72
2022-10-18T19:43:27.861Z,100335.28
2022-10-18T19:47:31.673Z,100336.19
2022-10-18T19:51:33.108Z,100333.53
2022-10-18T19:55:34.758Z,100327.41
2022-10-18T19:59:36.470Z,100329.22
2022-10-18T20:03:38.260Z,100330.16
2022-10-18T20:07:41.243Z,100334.59
2022-10-18T20:11:43.837Z,100329.38
2022-10-18T20:15:51.221Z,100330.31
2022-10-18T20:19:52.474Z,100324.25
2022-10-18T20:23:54.176Z,100317.34
2022-10-18T20:27:55.436Z,100320.91
2022-10-18T20:31:56.797Z,100318.34
2022-10-18T20:36:01.783Z,100327.97
2022-10-18T20:40:03.257Z,100323.66
2022-10-18T20:44:06.915Z,100323.69
2022-10-18T20:48:08.178Z,100322.84
2022-10-18T20:52:09.559Z,100322.84
2022-10-18T20:56:12.369Z,100322.91
2022-10-18T21:00:14.032Z,100324.66
2022-10-18T21:04:15.292Z,100322.06
2022-10-18T21:08:16.749Z,100317.72
2022-10-18T21:12:18.006Z,100322.97
2022-10-18T21:16:19.540Z,100317.78
2022-10-18T21:20:20.815Z,100316.94
2022-10-18T21:24:22.749Z,100310.88
2022-10-18T21:28:24.102Z,100312.63
2022-10-18T21:32:25.377Z,100307.41
2022-10-18T21:36:28.331Z,100315.25
2022-10-18T21:40:29.912Z,100315.25
2022-10-18T21:44:31.160Z,100318.72
2022-10-18T21:48:32.443Z,100310.00
2022-10-18T21:52:34.080Z,100314.31
2022-10-18T21:56:36.089Z,100316.00
2022-10-18T22:00:38.565Z,100306.38
2022-10-18T22:04:40.421Z,100308.06
2022-10-18T22:08:42.580Z,100289.69
2022-10-18T22:12:45.008Z,100294.00
2022-10-18T22:16:46.452Z,100293.13
2022-10-18T22:20:57.776Z,100293.09
2022-10-18T22:24:59.202Z,100298.28
2022-10-18T22:29:02.096Z,100299.13
2022-10-18T22:33:03.599Z,100300.00
2022-10-18T22:37:05.185Z,100298.22
2022-10-18T22:41:07.352Z,100293.88
2022-10-18T22:45:08.793Z,100287.75
2022-10-18T22:49:10.990Z,100290.34
2022-10-18T22:53:12.266Z,100277.28
2022-10-18T22:57:13.565Z,100279.91
2022-10-18T23:01:19.468Z,100274.69
2022-10-18T23:05:20.756Z,100278.19
2022-10-18T23:09:22.040Z,100279.06
2022-10-18T23:13:24.125Z,100275.59
2022-10-18T23:17:26.077Z,100267.75
2022-10-18T23:21:28.066Z,100274.72
2022-10-18T23:25:29.459Z,100274.69
2022-10-18T23:29:30.688Z,100263.38
2022-10-18T23:33:32.161Z,100260.75
2022-10-18T23:37:33.925Z,100265.09
2022-10-18T23:41:35.661Z,100260.72
2022-10-18T23:45:39.853Z,100258.13
2022-10-18T23:49:42.281Z,100268.56
2022-10-18T23:53:44.444Z,100258.09
2022-10-18T23:57:46.217Z,100258.06
